Baie-Comeau, Canada
Current Conditions -  °F | °C
As of 10:00 AM on Thursday 30 Oct 2014 (Local Time) from CYBC Reporting Station
Broken Clouds Broken Clouds  
Wind Chill: 38°   Ceiling: 4100
Heat Index: 45°   Visibility: 9mi
Dew Point: 37°   Wind: 13mph
Humidity: 76%   Direction: 260°W
Pressure: 29.74"   Gusts: NA
Location:  49.22°N, 68.15°W
Report Text: CYBC 301400Z AUTO 26011KT 9SM BKN041 07/03 A2974 RMK SLP072
Loading
Personal Weather Stations






























Interactive Weather Map
Tropical Storm Tracking
New forecast layout! Learn more

10-Day Weather Forecast

Advertisements
Track Severe Weather on mobile